Terminal Aerodrome Forecast
Issued by NWS

Home | Current Version | Previous Version | Text Only | Print | Product List | Glossary On
Versions: 1 2 3 4 5 6 7 8 9 10 11 12 13 14 15 16 17 18 19 20 21 22 23 24
000
FTUS41 KGYX 071224 AAA
TAFHIE
TAF AMD
KHIE 071224Z 0712/0812 VRB03KT 6SM BR BKN080
     FM071500 20005KT 5SM -SHRA OVC040
     FM080900 00000KT 2SM BR OVC015=

USA.gov is the U.S. government's official web portal to all federal, state and local government web resources and services.